sensor_id;sensor_type;location;lat;lon;timestamp;P1;durP1;ratioP1;P2;durP2;ratioP2
4700;SDS011;8724;51.272;6.554;2023-03-14T00:01:11;4.50;;;1.67;;
4700;SDS011;8724;51.272;6.554;2023-03-14T00:03:40;4.63;;;2.40;;
4700;SDS011;8724;51.272;6.554;2023-03-14T00:06:09;3.63;;;1.80;;
4700;SDS011;8724;51.272;6.554;2023-03-14T00:08:37;3.60;;;2.43;;
4700;SDS011;8724;51.272;6.554;2023-03-14T00:11:06;4.10;;;1.60;;
4700;SDS011;8724;51.272;6.554;2023-03-14T00:13:35;5.37;;;1.90;;
4700;SDS011;8724;51.272;6.554;2023-03-14T00:16:13;4.10;;;1.60;;
4700;SDS011;8724;51.272;6.554;2023-03-14T00:19:02;3.13;;;1.70;;
4700;SDS011;8724;51.272;6.554;2023-03-14T00:21:45;3.73;;;1.63;;
4700;SDS011;8724;51.272;6.554;2023-03-14T00:24:40;2.53;;;1.73;;
4700;SDS011;8724;51.272;6.554;2023-03-14T00:27:11;2.63;;;1.20;;
4700;SDS011;8724;51.272;6.554;2023-03-14T00:29:43;3.23;;;1.33;;
4700;SDS011;8724;51.272;6.554;2023-03-14T00:32:17;2.63;;;1.60;;
4700;SDS011;8724;51.272;6.554;2023-03-14T00:35:19;2.60;;;1.50;;
4700;SDS011;8724;51.272;6.554;2023-03-14T00:38:45;1.50;;;1.00;;
4700;SDS011;8724;51.272;6.554;2023-03-14T00:41:15;1.17;;;0.90;;
4700;SDS011;8724;51.272;6.554;2023-03-14T00:43:44;4.60;;;1.00;;
4700;SDS011;8724;51.272;6.554;2023-03-14T00:46:13;4.47;;;1.20;;
4700;SDS011;8724;51.272;6.554;2023-03-14T00:48:45;3.30;;;1.20;;
4700;SDS011;8724;51.272;6.554;2023-03-14T00:51:13;1.37;;;1.20;;
4700;SDS011;8724;51.272;6.554;2023-03-14T00:53:45;2.57;;;1.07;;
4700;SDS011;8724;51.272;6.554;2023-03-14T00:56:13;3.83;;;1.87;;
4700;SDS011;8724;51.272;6.554;2023-03-14T00:58:44;3.70;;;1.53;;
4700;SDS011;8724;51.272;6.554;2023-03-14T01:01:13;7.90;;;1.80;;
4700;SDS011;8724;51.272;6.554;2023-03-14T01:03:45;4.63;;;1.37;;
4700;SDS011;8724;51.272;6.554;2023-03-14T01:06:16;3.13;;;1.60;;
4700;SDS011;8724;51.272;6.554;2023-03-14T01:08:45;5.27;;;1.37;;
4700;SDS011;8724;51.272;6.554;2023-03-14T01:11:15;9.53;;;1.93;;
4700;SDS011;8724;51.272;6.554;2023-03-14T01:13:44;3.70;;;1.00;;
4700;SDS011;8724;51.272;6.554;2023-03-14T01:16:13;2.10;;;1.17;;
4700;SDS011;8724;51.272;6.554;2023-03-14T01:18:44;2.97;;;0.97;;
4700;SDS011;8724;51.272;6.554;2023-03-14T01:21:16;1.70;;;1.20;;
4700;SDS011;8724;51.272;6.554;2023-03-14T01:23:46;2.77;;;1.20;;
4700;SDS011;8724;51.272;6.554;2023-03-14T01:26:15;3.60;;;1.40;;
4700;SDS011;8724;51.272;6.554;2023-03-14T01:28:46;6.53;;;1.80;;
4700;SDS011;8724;51.272;6.554;2023-03-14T01:31:16;3.40;;;1.57;;
4700;SDS011;8724;51.272;6.554;2023-03-14T01:33:46;2.93;;;1.60;;
4700;SDS011;8724;51.272;6.554;2023-03-14T01:36:14;4.23;;;1.47;;
4700;SDS011;8724;51.272;6.554;2023-03-14T01:38:43;2.57;;;1.23;;
4700;SDS011;8724;51.272;6.554;2023-03-14T01:41:15;2.00;;;1.00;;
4700;SDS011;8724;51.272;6.554;2023-03-14T01:43:46;3.43;;;1.43;;
4700;SDS011;8724;51.272;6.554;2023-03-14T01:46:17;1.67;;;1.10;;
4700;SDS011;8724;51.272;6.554;2023-03-14T01:48:52;5.87;;;1.67;;
4700;SDS011;8724;51.272;6.554;2023-03-14T01:51:27;4.60;;;1.40;;
4700;SDS011;8724;51.272;6.554;2023-03-14T01:54:02;5.43;;;1.80;;
4700;SDS011;8724;51.272;6.554;2023-03-14T01:56:36;3.83;;;1.40;;
4700;SDS011;8724;51.272;6.554;2023-03-14T01:59:06;1.43;;;0.90;;
4700;SDS011;8724;51.272;6.554;2023-03-14T02:01:36;1.93;;;0.90;;
4700;SDS011;8724;51.272;6.554;2023-03-14T02:04:08;3.70;;;2.40;;
4700;SDS011;8724;51.272;6.554;2023-03-14T02:06:43;6.10;;;1.50;;
4700;SDS011;8724;51.272;6.554;2023-03-14T02:09:17;4.00;;;1.30;;
4700;SDS011;8724;51.272;6.554;2023-03-14T02:11:47;3.40;;;1.30;;
4700;SDS011;8724;51.272;6.554;2023-03-14T02:14:37;6.87;;;2.20;;
4700;SDS011;8724;51.272;6.554;2023-03-14T02:17:18;6.77;;;2.10;;
4700;SDS011;8724;51.272;6.554;2023-03-14T02:20:17;3.27;;;1.73;;
4700;SDS011;8724;51.272;6.554;2023-03-14T02:22:55;3.57;;;1.30;;
4700;SDS011;8724;51.272;6.554;2023-03-14T02:25:28;3.40;;;1.30;;
4700;SDS011;8724;51.272;6.554;2023-03-14T02:28:09;7.13;;;2.40;;
4700;SDS011;8724;51.272;6.554;2023-03-14T02:30:39;4.30;;;1.60;;
4700;SDS011;8724;51.272;6.554;2023-03-14T02:33:09;3.50;;;1.40;;
4700;SDS011;8724;51.272;6.554;2023-03-14T02:35:43;6.87;;;1.80;;
4700;SDS011;8724;51.272;6.554;2023-03-14T02:38:15;5.30;;;2.03;;
4700;SDS011;8724;51.272;6.554;2023-03-14T02:40:48;4.27;;;1.57;;
4700;SDS011;8724;51.272;6.554;2023-03-14T02:43:18;3.70;;;1.60;;
4700;SDS011;8724;51.272;6.554;2023-03-14T02:45:53;6.07;;;1.47;;
4700;SDS011;8724;51.272;6.554;2023-03-14T02:48:24;3.20;;;1.80;;
4700;SDS011;8724;51.272;6.554;2023-03-14T02:50:56;3.30;;;0.87;;
4700;SDS011;8724;51.272;6.554;2023-03-14T02:53:28;4.27;;;1.60;;
4700;SDS011;8724;51.272;6.554;2023-03-14T02:56:02;1.20;;;1.00;;
4700;SDS011;8724;51.272;6.554;2023-03-14T02:58:34;3.27;;;1.47;;
4700;SDS011;8724;51.272;6.554;2023-03-14T03:01:13;2.30;;;1.27;;
4700;SDS011;8724;51.272;6.554;2023-03-14T03:03:42;3.70;;;1.40;;
4700;SDS011;8724;51.272;6.554;2023-03-14T03:06:11;2.70;;;1.33;;
4700;SDS011;8724;51.272;6.554;2023-03-14T03:08:39;1.53;;;1.10;;
4700;SDS011;8724;51.272;6.554;2023-03-14T03:11:07;4.90;;;1.50;;
4700;SDS011;8724;51.272;6.554;2023-03-14T03:13:37;3.40;;;1.50;;
4700;SDS011;8724;51.272;6.554;2023-03-14T03:16:08;2.80;;;1.20;;
4700;SDS011;8724;51.272;6.554;2023-03-14T03:18:37;3.03;;;1.20;;
4700;SDS011;8724;51.272;6.554;2023-03-14T03:21:05;2.60;;;1.30;;
4700;SDS011;8724;51.272;6.554;2023-03-14T03:23:35;3.03;;;1.30;;
4700;SDS011;8724;51.272;6.554;2023-03-14T03:26:05;6.00;;;1.63;;
4700;SDS011;8724;51.272;6.554;2023-03-14T03:28:34;3.93;;;1.43;;
4700;SDS011;8724;51.272;6.554;2023-03-14T03:31:07;3.53;;;1.30;;
4700;SDS011;8724;51.272;6.554;2023-03-14T03:33:37;6.13;;;2.00;;
4700;SDS011;8724;51.272;6.554;2023-03-14T03:36:06;6.13;;;1.73;;
4700;SDS011;8724;51.272;6.554;2023-03-14T03:38:38;2.50;;;1.30;;
4700;SDS011;8724;51.272;6.554;2023-03-14T03:41:08;2.83;;;1.40;;
4700;SDS011;8724;51.272;6.554;2023-03-14T03:43:36;5.73;;;1.57;;
4700;SDS011;8724;51.272;6.554;2023-03-14T03:46:09;3.17;;;1.13;;
4700;SDS011;8724;51.272;6.554;2023-03-14T03:48:38;5.30;;;1.47;;
4700;SDS011;8724;51.272;6.554;2023-03-14T03:51:07;5.80;;;2.37;;
4700;SDS011;8724;51.272;6.554;2023-03-14T03:53:38;4.23;;;1.60;;
4700;SDS011;8724;51.272;6.554;2023-03-14T03:56:10;3.43;;;1.33;;
4700;SDS011;8724;51.272;6.554;2023-03-14T03:58:39;3.60;;;1.30;;
4700;SDS011;8724;51.272;6.554;2023-03-14T04:01:10;5.67;;;1.60;;
4700;SDS011;8724;51.272;6.554;2023-03-14T04:03:39;5.07;;;1.30;;
4700;SDS011;8724;51.272;6.554;2023-03-14T04:06:09;3.60;;;1.23;;
4700;SDS011;8724;51.272;6.554;2023-03-14T04:08:39;2.10;;;1.00;;
4700;SDS011;8724;51.272;6.554;2023-03-14T04:11:11;2.20;;;1.10;;
4700;SDS011;8724;51.272;6.554;2023-03-14T04:14:03;1.17;;;1.07;;
4700;SDS011;8724;51.272;6.554;2023-03-14T04:16:34;1.60;;;0.93;;
4700;SDS011;8724;51.272;6.554;2023-03-14T04:19:09;0.80;;;0.80;;
4700;SDS011;8724;51.272;6.554;2023-03-14T04:21:37;1.97;;;1.00;;
4700;SDS011;8724;51.272;6.554;2023-03-14T04:24:09;0.93;;;0.60;;
4700;SDS011;8724;51.272;6.554;2023-03-14T04:26:37;0.80;;;0.80;;
4700;SDS011;8724;51.272;6.554;2023-03-14T04:29:08;2.33;;;1.17;;
4700;SDS011;8724;51.272;6.554;2023-03-14T04:31:41;2.00;;;0.80;;
4700;SDS011;8724;51.272;6.554;2023-03-14T04:34:09;2.87;;;0.80;;
4700;SDS011;8724;51.272;6.554;2023-03-14T04:36:47;2.30;;;1.07;;
4700;SDS011;8724;51.272;6.554;2023-03-14T04:39:20;4.23;;;1.10;;
4700;SDS011;8724;51.272;6.554;2023-03-14T04:42:12;1.47;;;0.80;;
4700;SDS011;8724;51.272;6.554;2023-03-14T04:44:40;1.63;;;0.77;;
4700;SDS011;8724;51.272;6.554;2023-03-14T04:47:12;2.10;;;1.17;;
4700;SDS011;8724;51.272;6.554;2023-03-14T04:49:42;1.43;;;0.70;;
4700;SDS011;8724;51.272;6.554;2023-03-14T04:52:13;10.60;;;7.40;;
4700;SDS011;8724;51.272;6.554;2023-03-14T04:54:42;13.37;;;10.43;;
4700;SDS011;8724;51.272;6.554;2023-03-14T04:57:19;18.37;;;14.73;;
4700;SDS011;8724;51.272;6.554;2023-03-14T04:59:54;16.40;;;12.63;;
4700;SDS011;8724;51.272;6.554;2023-03-14T05:02:46;6.60;;;5.87;;
4700;SDS011;8724;51.272;6.554;2023-03-14T05:05:42;2.30;;;2.10;;
4700;SDS011;8724;51.272;6.554;2023-03-14T05:09:01;3.40;;;1.47;;
4700;SDS011;8724;51.272;6.554;2023-03-14T05:11:36;1.60;;;1.43;;
4700;SDS011;8724;51.272;6.554;2023-03-14T05:14:48;1.40;;;1.00;;
4700;SDS011;8724;51.272;6.554;2023-03-14T05:17:37;1.20;;;0.70;;
4700;SDS011;8724;51.272;6.554;2023-03-14T05:20:33;1.00;;;0.90;;
4700;SDS011;8724;51.272;6.554;2023-03-14T05:23:22;1.10;;;0.73;;
4700;SDS011;8724;51.272;6.554;2023-03-14T05:26:13;1.00;;;0.97;;
4700;SDS011;8724;51.272;6.554;2023-03-14T05:29:04;1.20;;;0.83;;
4700;SDS011;8724;51.272;6.554;2023-03-14T05:31:58;1.03;;;0.93;;
4700;SDS011;8724;51.272;6.554;2023-03-14T05:35:06;1.47;;;0.90;;
4700;SDS011;8724;51.272;6.554;2023-03-14T05:37:49;1.10;;;0.83;;
4700;SDS011;8724;51.272;6.554;2023-03-14T05:40:48;1.43;;;0.83;;
4700;SDS011;8724;51.272;6.554;2023-03-14T05:43:51;1.00;;;0.70;;
4700;SDS011;8724;51.272;6.554;2023-03-14T05:46:33;1.23;;;0.93;;
4700;SDS011;8724;51.272;6.554;2023-03-14T05:49:34;0.70;;;0.60;;
4700;SDS011;8724;51.272;6.554;2023-03-14T05:52:31;0.80;;;0.57;;
4700;SDS011;8724;51.272;6.554;2023-03-14T05:55:41;1.20;;;0.70;;
4700;SDS011;8724;51.272;6.554;2023-03-14T05:58:41;1.10;;;0.70;;
4700;SDS011;8724;51.272;6.554;2023-03-14T06:01:29;25.87;;;17.47;;
4700;SDS011;8724;51.272;6.554;2023-03-14T06:04:13;19.87;;;17.67;;
4700;SDS011;8724;51.272;6.554;2023-03-14T06:06:46;9.00;;;7.70;;
4700;SDS011;8724;51.272;6.554;2023-03-14T06:09:18;4.13;;;3.43;;
4700;SDS011;8724;51.272;6.554;2023-03-14T06:12:03;2.50;;;1.70;;
4700;SDS011;8724;51.272;6.554;2023-03-14T06:14:39;2.10;;;1.03;;
4700;SDS011;8724;51.272;6.554;2023-03-14T06:17:10;0.70;;;0.70;;
4700;SDS011;8724;51.272;6.554;2023-03-14T06:19:51;0.50;;;0.50;;
4700;SDS011;8724;51.272;6.554;2023-03-14T06:22:22;1.07;;;0.60;;
4700;SDS011;8724;51.272;6.554;2023-03-14T06:25:09;1.07;;;0.97;;
4700;SDS011;8724;51.272;6.554;2023-03-14T06:27:39;1.17;;;0.60;;
4700;SDS011;8724;51.272;6.554;2023-03-14T06:30:09;0.60;;;0.60;;
4700;SDS011;8724;51.272;6.554;2023-03-14T06:32:42;2.00;;;0.60;;
4700;SDS011;8724;51.272;6.554;2023-03-14T06:35:22;0.50;;;0.50;;
4700;SDS011;8724;51.272;6.554;2023-03-14T06:37:55;0.87;;;0.70;;
4700;SDS011;8724;51.272;6.554;2023-03-14T06:40:30;0.60;;;0.60;;
4700;SDS011;8724;51.272;6.554;2023-03-14T06:43:12;1.17;;;0.80;;
4700;SDS011;8724;51.272;6.554;2023-03-14T06:45:49;0.60;;;0.60;;
4700;SDS011;8724;51.272;6.554;2023-03-14T06:48:18;0.50;;;0.50;;
4700;SDS011;8724;51.272;6.554;2023-03-14T06:50:56;0.70;;;0.70;;
4700;SDS011;8724;51.272;6.554;2023-03-14T06:53:24;0.70;;;0.70;;
4700;SDS011;8724;51.272;6.554;2023-03-14T06:55:53;0.40;;;0.40;;
4700;SDS011;8724;51.272;6.554;2023-03-14T06:58:28;1.37;;;0.70;;
4700;SDS011;8724;51.272;6.554;2023-03-14T07:00:57;0.80;;;0.50;;
4700;SDS011;8724;51.272;6.554;2023-03-14T07:03:31;0.60;;;0.60;;
4700;SDS011;8724;51.272;6.554;2023-03-14T07:06:00;0.83;;;0.60;;
4700;SDS011;8724;51.272;6.554;2023-03-14T07:08:28;0.60;;;0.60;;
4700;SDS011;8724;51.272;6.554;2023-03-14T07:10:59;0.73;;;0.60;;
4700;SDS011;8724;51.272;6.554;2023-03-14T07:13:28;1.13;;;0.70;;
4700;SDS011;8724;51.272;6.554;2023-03-14T07:16:02;0.90;;;0.60;;
4700;SDS011;8724;51.272;6.554;2023-03-14T07:18:31;0.50;;;0.50;;
4700;SDS011;8724;51.272;6.554;2023-03-14T07:21:03;0.60;;;0.60;;
4700;SDS011;8724;51.272;6.554;2023-03-14T07:23:32;22.70;;;15.50;;
4700;SDS011;8724;51.272;6.554;2023-03-14T07:26:03;34.80;;;26.03;;
4700;SDS011;8724;51.272;6.554;2023-03-14T07:28:34;17.37;;;14.13;;
4700;SDS011;8724;51.272;6.554;2023-03-14T07:31:08;6.00;;;5.27;;
4700;SDS011;8724;51.272;6.554;2023-03-14T07:33:37;2.90;;;2.50;;
4700;SDS011;8724;51.272;6.554;2023-03-14T07:36:07;1.53;;;1.43;;
4700;SDS011;8724;51.272;6.554;2023-03-14T07:38:37;1.20;;;1.10;;
4700;SDS011;8724;51.272;6.554;2023-03-14T07:41:21;1.53;;;0.80;;
4700;SDS011;8724;51.272;6.554;2023-03-14T07:44:10;1.80;;;0.80;;
4700;SDS011;8724;51.272;6.554;2023-03-14T07:46:39;0.93;;;0.73;;
4700;SDS011;8724;51.272;6.554;2023-03-14T07:49:07;1.40;;;0.80;;
4700;SDS011;8724;51.272;6.554;2023-03-14T07:51:35;0.87;;;0.87;;
4700;SDS011;8724;51.272;6.554;2023-03-14T07:54:04;2.00;;;0.70;;
4700;SDS011;8724;51.272;6.554;2023-03-14T07:56:32;1.90;;;0.60;;
4700;SDS011;8724;51.272;6.554;2023-03-14T07:59:01;0.80;;;0.80;;
4700;SDS011;8724;51.272;6.554;2023-03-14T08:01:31;0.80;;;0.80;;
4700;SDS011;8724;51.272;6.554;2023-03-14T08:03:59;0.80;;;0.80;;
4700;SDS011;8724;51.272;6.554;2023-03-14T08:06:28;0.83;;;0.83;;
4700;SDS011;8724;51.272;6.554;2023-03-14T08:08:56;3.43;;;0.80;;
4700;SDS011;8724;51.272;6.554;2023-03-14T08:11:24;1.63;;;0.80;;
4700;SDS011;8724;51.272;6.554;2023-03-14T08:13:52;1.00;;;0.97;;
4700;SDS011;8724;51.272;6.554;2023-03-14T08:16:21;1.27;;;0.90;;
4700;SDS011;8724;51.272;6.554;2023-03-14T08:18:51;1.00;;;1.00;;
4700;SDS011;8724;51.272;6.554;2023-03-14T08:21:19;1.20;;;1.10;;
4700;SDS011;8724;51.272;6.554;2023-03-14T08:23:47;2.10;;;0.90;;
4700;SDS011;8724;51.272;6.554;2023-03-14T08:26:16;1.13;;;1.03;;
4700;SDS011;8724;51.272;6.554;2023-03-14T08:28:44;1.20;;;1.10;;
4700;SDS011;8724;51.272;6.554;2023-03-14T08:31:16;1.30;;;1.20;;
4700;SDS011;8724;51.272;6.554;2023-03-14T08:33:44;1.03;;;0.93;;
4700;SDS011;8724;51.272;6.554;2023-03-14T08:36:15;0.87;;;0.83;;
4700;SDS011;8724;51.272;6.554;2023-03-14T08:38:47;1.27;;;1.10;;
4700;SDS011;8724;51.272;6.554;2023-03-14T08:41:16;39.17;;;28.47;;
4700;SDS011;8724;51.272;6.554;2023-03-14T08:43:44;15.03;;;12.90;;
4700;SDS011;8724;51.272;6.554;2023-03-14T08:46:13;5.80;;;4.30;;
4700;SDS011;8724;51.272;6.554;2023-03-14T08:48:41;2.10;;;1.60;;
4700;SDS011;8724;51.272;6.554;2023-03-14T08:51:10;3.37;;;1.10;;
4700;SDS011;8724;51.272;6.554;2023-03-14T08:53:42;1.00;;;0.83;;
4700;SDS011;8724;51.272;6.554;2023-03-14T08:56:11;0.97;;;0.97;;
4700;SDS011;8724;51.272;6.554;2023-03-14T08:58:39;0.70;;;0.70;;
4700;SDS011;8724;51.272;6.554;2023-03-14T09:01:08;0.80;;;0.80;;
4700;SDS011;8724;51.272;6.554;2023-03-14T09:03:38;1.30;;;1.20;;
4700;SDS011;8724;51.272;6.554;2023-03-14T09:06:07;1.00;;;0.63;;
4700;SDS011;8724;51.272;6.554;2023-03-14T09:08:37;1.03;;;0.60;;
4700;SDS011;8724;51.272;6.554;2023-03-14T09:11:08;1.33;;;0.60;;
4700;SDS011;8724;51.272;6.554;2023-03-14T09:13:36;0.50;;;0.50;;
4700;SDS011;8724;51.272;6.554;2023-03-14T09:16:05;1.17;;;0.50;;
4700;SDS011;8724;51.272;6.554;2023-03-14T09:18:34;0.60;;;0.50;;
4700;SDS011;8724;51.272;6.554;2023-03-14T09:21:03;2.80;;;0.53;;
4700;SDS011;8724;51.272;6.554;2023-03-14T09:23:32;0.67;;;0.60;;
4700;SDS011;8724;51.272;6.554;2023-03-14T09:26:00;1.00;;;0.90;;
4700;SDS011;8724;51.272;6.554;2023-03-14T09:28:30;1.00;;;0.60;;
4700;SDS011;8724;51.272;6.554;2023-03-14T09:31:05;0.60;;;0.60;;
4700;SDS011;8724;51.272;6.554;2023-03-14T09:33:34;0.50;;;0.50;;
4700;SDS011;8724;51.272;6.554;2023-03-14T09:36:03;0.80;;;0.80;;
4700;SDS011;8724;51.272;6.554;2023-03-14T09:38:32;1.17;;;0.90;;
4700;SDS011;8724;51.272;6.554;2023-03-14T09:41:01;5.10;;;0.83;;
4700;SDS011;8724;51.272;6.554;2023-03-14T09:43:39;1.87;;;0.90;;
4700;SDS011;8724;51.272;6.554;2023-03-14T09:46:10;0.80;;;0.80;;
4700;SDS011;8724;51.272;6.554;2023-03-14T09:48:39;0.80;;;0.80;;
4700;SDS011;8724;51.272;6.554;2023-03-14T09:51:11;0.80;;;0.63;;
4700;SDS011;8724;51.272;6.554;2023-03-14T09:53:43;0.80;;;0.80;;
4700;SDS011;8724;51.272;6.554;2023-03-14T09:56:13;3.43;;;1.87;;
4700;SDS011;8724;51.272;6.554;2023-03-14T09:58:50;4.10;;;1.07;;
4700;SDS011;8724;51.272;6.554;2023-03-14T10:01:22;1.47;;;0.70;;
4700;SDS011;8724;51.272;6.554;2023-03-14T10:03:58;1.33;;;0.80;;
4700;SDS011;8724;51.272;6.554;2023-03-14T10:06:30;0.67;;;0.67;;
4700;SDS011;8724;51.272;6.554;2023-03-14T10:08:59;1.00;;;0.70;;
4700;SDS011;8724;51.272;6.554;2023-03-14T10:11:28;1.43;;;0.70;;
4700;SDS011;8724;51.272;6.554;2023-03-14T10:14:05;2.07;;;0.87;;
4700;SDS011;8724;51.272;6.554;2023-03-14T10:16:36;1.23;;;1.00;;
4700;SDS011;8724;51.272;6.554;2023-03-14T10:19:09;9.33;;;6.77;;
4700;SDS011;8724;51.272;6.554;2023-03-14T10:21:39;3.13;;;1.00;;
4700;SDS011;8724;51.272;6.554;2023-03-14T10:24:09;0.97;;;0.87;;
4700;SDS011;8724;51.272;6.554;2023-03-14T10:26:47;1.00;;;0.83;;
4700;SDS011;8724;51.272;6.554;2023-03-14T10:29:19;1.57;;;0.77;;
4700;SDS011;8724;51.272;6.554;2023-03-14T10:31:50;2.00;;;0.70;;
4700;SDS011;8724;51.272;6.554;2023-03-14T10:34:21;1.13;;;0.80;;
4700;SDS011;8724;51.272;6.554;2023-03-14T10:36:52;1.10;;;0.70;;
4700;SDS011;8724;51.272;6.554;2023-03-14T10:39:29;1.23;;;0.70;;
4700;SDS011;8724;51.272;6.554;2023-03-14T10:42:06;2.20;;;1.30;;
4700;SDS011;8724;51.272;6.554;2023-03-14T10:44:46;2.20;;;1.23;;
4700;SDS011;8724;51.272;6.554;2023-03-14T10:47:22;1.00;;;0.90;;
4700;SDS011;8724;51.272;6.554;2023-03-14T10:49:54;1.73;;;0.90;;
4700;SDS011;8724;51.272;6.554;2023-03-14T10:52:23;4.17;;;1.33;;
4700;SDS011;8724;51.272;6.554;2023-03-14T10:55:14;0.90;;;0.90;;
4700;SDS011;8724;51.272;6.554;2023-03-14T10:57:42;2.67;;;1.00;;
4700;SDS011;8724;51.272;6.554;2023-03-14T11:00:16;2.70;;;1.27;;
4700;SDS011;8724;51.272;6.554;2023-03-14T11:02:49;2.23;;;1.13;;
4700;SDS011;8724;51.272;6.554;2023-03-14T11:05:29;2.30;;;1.17;;
4700;SDS011;8724;51.272;6.554;2023-03-14T11:08:09;2.13;;;1.00;;
4700;SDS011;8724;51.272;6.554;2023-03-14T11:10:46;2.73;;;1.40;;
4700;SDS011;8724;51.272;6.554;2023-03-14T11:13:20;3.13;;;1.20;;
4700;SDS011;8724;51.272;6.554;2023-03-14T11:15:56;2.43;;;1.30;;
4700;SDS011;8724;51.272;6.554;2023-03-14T11:21:32;2.40;;;1.20;;
4700;SDS011;8724;51.272;6.554;2023-03-14T11:24:13;2.73;;;1.07;;
4700;SDS011;8724;51.272;6.554;2023-03-14T11:26:54;2.13;;;1.00;;
4700;SDS011;8724;51.272;6.554;2023-03-14T11:29:28;1.97;;;1.17;;
4700;SDS011;8724;51.272;6.554;2023-03-14T11:32:10;1.20;;;0.70;;
4700;SDS011;8724;51.272;6.554;2023-03-14T11:34:43;4.60;;;0.93;;
4700;SDS011;8724;51.272;6.554;2023-03-14T11:37:20;2.10;;;0.80;;
4700;SDS011;8724;51.272;6.554;2023-03-14T11:39:55;2.30;;;1.20;;
4700;SDS011;8724;51.272;6.554;2023-03-14T11:42:29;2.20;;;0.97;;
4700;SDS011;8724;51.272;6.554;2023-03-14T11:45:00;2.00;;;1.00;;
4700;SDS011;8724;51.272;6.554;2023-03-14T11:47:32;3.00;;;1.00;;
4700;SDS011;8724;51.272;6.554;2023-03-14T11:50:07;1.70;;;1.17;;
4700;SDS011;8724;51.272;6.554;2023-03-14T11:52:44;1.80;;;0.83;;
4700;SDS011;8724;51.272;6.554;2023-03-14T11:55:17;1.43;;;1.00;;
4700;SDS011;8724;51.272;6.554;2023-03-14T11:57:49;2.20;;;0.80;;
4700;SDS011;8724;51.272;6.554;2023-03-14T12:00:19;1.13;;;0.97;;
4700;SDS011;8724;51.272;6.554;2023-03-14T12:02:50;1.50;;;0.70;;
4700;SDS011;8724;51.272;6.554;2023-03-14T12:05:31;3.63;;;1.00;;
4700;SDS011;8724;51.272;6.554;2023-03-14T12:08:24;4.53;;;0.90;;
4700;SDS011;8724;51.272;6.554;2023-03-14T12:11:19;3.00;;;1.30;;
4700;SDS011;8724;51.272;6.554;2023-03-14T12:13:59;4.60;;;1.20;;
4700;SDS011;8724;51.272;6.554;2023-03-14T12:16:32;2.27;;;1.03;;
4700;SDS011;8724;51.272;6.554;2023-03-14T12:19:26;2.63;;;1.50;;
4700;SDS011;8724;51.272;6.554;2023-03-14T12:21:59;1.70;;;0.90;;
4700;SDS011;8724;51.272;6.554;2023-03-14T12:24:34;2.50;;;1.00;;
4700;SDS011;8724;51.272;6.554;2023-03-14T12:27:09;9.20;;;3.57;;
4700;SDS011;8724;51.272;6.554;2023-03-14T12:30:02;21.80;;;16.33;;
4700;SDS011;8724;51.272;6.554;2023-03-14T12:32:47;5.53;;;1.73;;
4700;SDS011;8724;51.272;6.554;2023-03-14T12:35:40;6.30;;;2.43;;
4700;SDS011;8724;51.272;6.554;2023-03-14T12:38:10;4.23;;;1.30;;
4700;SDS011;8724;51.272;6.554;2023-03-14T12:40:46;2.17;;;1.20;;
4700;SDS011;8724;51.272;6.554;2023-03-14T12:43:25;6.53;;;2.07;;
4700;SDS011;8724;51.272;6.554;2023-03-14T12:46:07;6.27;;;2.50;;
4700;SDS011;8724;51.272;6.554;2023-03-14T12:48:43;7.27;;;2.50;;
4700;SDS011;8724;51.272;6.554;2023-03-14T12:51:13;10.37;;;2.30;;
4700;SDS011;8724;51.272;6.554;2023-03-14T12:53:50;10.80;;;2.43;;
4700;SDS011;8724;51.272;6.554;2023-03-14T12:56:28;6.90;;;2.10;;
4700;SDS011;8724;51.272;6.554;2023-03-14T12:59:19;14.13;;;3.70;;
4700;SDS011;8724;51.272;6.554;2023-03-14T13:02:00;5.93;;;2.47;;
4700;SDS011;8724;51.272;6.554;2023-03-14T13:04:46;15.80;;;3.60;;
4700;SDS011;8724;51.272;6.554;2023-03-14T13:07:30;7.00;;;2.70;;
4700;SDS011;8724;51.272;6.554;2023-03-14T13:10:02;8.80;;;2.80;;
4700;SDS011;8724;51.272;6.554;2023-03-14T13:12:37;9.27;;;3.10;;
4700;SDS011;8724;51.272;6.554;2023-03-14T13:15:19;13.47;;;3.57;;
4700;SDS011;8724;51.272;6.554;2023-03-14T13:18:01;6.83;;;2.60;;
4700;SDS011;8724;51.272;6.554;2023-03-14T13:20:31;11.90;;;3.67;;
4700;SDS011;8724;51.272;6.554;2023-03-14T13:23:02;16.87;;;3.13;;
4700;SDS011;8724;51.272;6.554;2023-03-14T13:25:32;10.93;;;3.20;;
4700;SDS011;8724;51.272;6.554;2023-03-14T13:28:02;14.87;;;2.90;;
4700;SDS011;8724;51.272;6.554;2023-03-14T13:30:38;7.93;;;2.80;;
4700;SDS011;8724;51.272;6.554;2023-03-14T13:33:12;11.63;;;2.77;;
4700;SDS011;8724;51.272;6.554;2023-03-14T13:35:43;11.10;;;2.90;;
4700;SDS011;8724;51.272;6.554;2023-03-14T13:38:15;11.37;;;3.23;;
4700;SDS011;8724;51.272;6.554;2023-03-14T13:40:45;9.87;;;3.10;;
4700;SDS011;8724;51.272;6.554;2023-03-14T13:43:16;20.97;;;4.13;;
4700;SDS011;8724;51.272;6.554;2023-03-14T13:45:53;10.03;;;3.07;;
4700;SDS011;8724;51.272;6.554;2023-03-14T13:48:27;14.30;;;2.90;;
4700;SDS011;8724;51.272;6.554;2023-03-14T13:50:58;10.53;;;3.17;;
4700;SDS011;8724;51.272;6.554;2023-03-14T13:53:29;13.17;;;3.20;;
4700;SDS011;8724;51.272;6.554;2023-03-14T13:56:00;11.37;;;3.10;;
4700;SDS011;8724;51.272;6.554;2023-03-14T13:58:31;16.47;;;3.80;;
4700;SDS011;8724;51.272;6.554;2023-03-14T14:01:01;16.13;;;3.67;;
4700;SDS011;8724;51.272;6.554;2023-03-14T14:03:35;10.33;;;2.93;;
4700;SDS011;8724;51.272;6.554;2023-03-14T14:06:08;10.13;;;3.47;;
4700;SDS011;8724;51.272;6.554;2023-03-14T14:08:49;14.30;;;2.77;;
4700;SDS011;8724;51.272;6.554;2023-03-14T14:11:19;16.20;;;8.47;;
4700;SDS011;8724;51.272;6.554;2023-03-14T14:14:09;17.87;;;8.67;;
4700;SDS011;8724;51.272;6.554;2023-03-14T14:16:41;10.60;;;3.40;;
4700;SDS011;8724;51.272;6.554;2023-03-14T14:19:13;11.70;;;4.00;;
4700;SDS011;8724;51.272;6.554;2023-03-14T14:21:43;9.63;;;2.77;;
4700;SDS011;8724;51.272;6.554;2023-03-14T14:24:12;10.13;;;3.60;;
4700;SDS011;8724;51.272;6.554;2023-03-14T14:26:46;5.90;;;2.60;;
4700;SDS011;8724;51.272;6.554;2023-03-14T14:29:21;4.60;;;2.03;;
4700;SDS011;8724;51.272;6.554;2023-03-14T14:32:03;4.97;;;2.07;;
4700;SDS011;8724;51.272;6.554;2023-03-14T14:34:41;5.00;;;2.60;;
4700;SDS011;8724;51.272;6.554;2023-03-14T14:37:19;7.50;;;2.23;;
4700;SDS011;8724;51.272;6.554;2023-03-14T14:39:52;8.70;;;2.57;;
4700;SDS011;8724;51.272;6.554;2023-03-14T14:42:24;11.40;;;2.23;;
4700;SDS011;8724;51.272;6.554;2023-03-14T14:44:55;4.63;;;2.17;;
4700;SDS011;8724;51.272;6.554;2023-03-14T14:47:25;4.77;;;2.10;;
4700;SDS011;8724;51.272;6.554;2023-03-14T14:49:58;6.80;;;2.30;;
4700;SDS011;8724;51.272;6.554;2023-03-14T14:52:33;5.80;;;2.40;;
4700;SDS011;8724;51.272;6.554;2023-03-14T14:55:10;6.90;;;2.73;;
4700;SDS011;8724;51.272;6.554;2023-03-14T14:57:41;4.63;;;2.30;;
4700;SDS011;8724;51.272;6.554;2023-03-14T15:00:18;8.37;;;1.87;;
4700;SDS011;8724;51.272;6.554;2023-03-14T15:02:49;8.50;;;2.30;;
4700;SDS011;8724;51.272;6.554;2023-03-14T15:05:23;14.23;;;2.57;;
4700;SDS011;8724;51.272;6.554;2023-03-14T15:07:53;7.67;;;3.10;;
4700;SDS011;8724;51.272;6.554;2023-03-14T15:10:22;5.30;;;1.80;;
4700;SDS011;8724;51.272;6.554;2023-03-14T15:12:52;4.27;;;1.90;;
4700;SDS011;8724;51.272;6.554;2023-03-14T15:15:21;6.70;;;2.70;;
4700;SDS011;8724;51.272;6.554;2023-03-14T15:17:49;6.40;;;2.10;;
4700;SDS011;8724;51.272;6.554;2023-03-14T15:20:18;10.40;;;2.03;;
4700;SDS011;8724;51.272;6.554;2023-03-14T15:22:51;5.40;;;1.93;;
4700;SDS011;8724;51.272;6.554;2023-03-14T15:25:20;5.47;;;1.90;;
4700;SDS011;8724;51.272;6.554;2023-03-14T15:28:11;7.07;;;2.83;;
4700;SDS011;8724;51.272;6.554;2023-03-14T15:30:46;15.60;;;9.80;;
4700;SDS011;8724;51.272;6.554;2023-03-14T15:33:15;5.27;;;2.60;;
4700;SDS011;8724;51.272;6.554;2023-03-14T15:35:44;5.00;;;2.07;;
4700;SDS011;8724;51.272;6.554;2023-03-14T15:38:15;6.30;;;2.27;;
4700;SDS011;8724;51.272;6.554;2023-03-14T15:40:47;4.20;;;2.03;;
4700;SDS011;8724;51.272;6.554;2023-03-14T15:43:16;4.83;;;1.80;;
4700;SDS011;8724;51.272;6.554;2023-03-14T15:45:45;3.07;;;1.80;;
4700;SDS011;8724;51.272;6.554;2023-03-14T15:48:14;7.53;;;2.00;;
4700;SDS011;8724;51.272;6.554;2023-03-14T15:50:43;6.57;;;1.83;;
4700;SDS011;8724;51.272;6.554;2023-03-14T15:53:12;3.77;;;1.70;;
4700;SDS011;8724;51.272;6.554;2023-03-14T15:55:42;9.73;;;2.27;;
4700;SDS011;8724;51.272;6.554;2023-03-14T15:58:13;4.67;;;1.90;;
4700;SDS011;8724;51.272;6.554;2023-03-14T16:00:47;6.33;;;2.53;;